Time;durP1;ratioP1;P1;durP2;ratioP2;P2;SDS_P1;SDS_P2;PMS_P1;PMS_P2;Temp;Humidity;BMP_temperature;BMP_pressure;BME280_temperature;BME280_humidity;BME280_pressure;Samples;Min_cycle;Max_cycle;Signal;HPM_P1;HPM_P2
2021/08/08 00:01:55;;;;;;;8.25;2.63;;;;;;;15.63;73.92;98508.41;5028991;28;20053;-71
2021/08/08 00:04:22;;;;;;;7.15;2.60;;;;;;;15.66;73.83;98515.25;5026614;28;20046;-72
2021/08/08 00:06:47;;;;;;;5.82;2.03;;;;;;;15.67;73.15;98516.91;5028512;28;20524;-71
2021/08/08 00:09:13;;;;;;;9.65;2.78;;;;;;;15.66;72.48;98515.25;5028629;28;20033;-72
2021/08/08 00:11:38;;;;;;;3.85;2.50;;;;;;;15.67;72.82;98520.41;5028811;28;20043;-72
2021/08/08 00:14:05;;;;;;;30.65;4.65;;;;;;;15.66;72.97;98517.91;5027535;28;20034;-71
2021/08/08 00:16:31;;;;;;;4.45;2.38;;;;;;;15.68;72.76;98515.94;5028339;28;20093;-71
2021/08/08 00:18:56;;;;;;;8.32;2.60;;;;;;;15.65;72.60;98516.22;5030903;28;20041;-71
2021/08/08 00:21:22;;;;;;;7.13;2.45;;;;;;;15.65;72.71;98517.06;5029420;28;20083;-72
2021/08/08 00:23:47;;;;;;;4.30;2.53;;;;;;;15.63;72.43;98524.34;5030903;28;20102;-71
2021/08/08 00:26:13;;;;;;;3.78;2.38;;;;;;;15.62;72.42;98519.97;5030073;28;20025;-72
2021/08/08 00:28:38;;;;;;;5.82;2.60;;;;;;;15.66;72.12;98529.38;5027699;28;20068;-71
2021/08/08 00:31:03;;;;;;;3.22;1.88;;;;;;;15.68;71.83;98529.25;5028712;28;20048;-71
2021/08/08 00:33:29;;;;;;;5.60;2.25;;;;;;;15.68;71.62;98532.72;5027807;28;20040;-71
2021/08/08 00:35:54;;;;;;;4.60;2.03;;;;;;;15.70;71.45;98523.78;5028294;28;20091;-71
2021/08/08 00:38:19;;;;;;;3.55;1.85;;;;;;;15.71;71.42;98520.19;5027967;28;20456;-71
2021/08/08 00:40:45;;;;;;;5.38;2.30;;;;;;;15.73;71.47;98520.88;5028654;28;20037;-71
2021/08/08 00:43:11;;;;;;;4.45;2.60;;;;;;;15.70;71.14;98537.09;5027988;28;20034;-71
2021/08/08 00:45:37;;;;;;;6.25;2.35;;;;;;;15.70;70.88;98540.56;5028286;28;20030;-71
2021/08/08 00:48:03;;;;;;;11.05;3.17;;;;;;;15.72;70.52;98543.94;5027090;28;20120;-70
2021/08/08 00:50:29;;;;;;;5.50;2.50;;;;;;;15.71;70.84;98542.28;5027938;28;20104;-70
2021/08/08 00:52:54;;;;;;;6.28;2.15;;;;;;;15.70;70.59;98551.19;5028340;28;20762;-71
2021/08/08 00:55:20;;;;;;;6.68;2.60;;;;;;;15.73;70.99;98550.13;5031622;28;20029;-71
2021/08/08 00:57:46;;;;;;;5.50;2.63;;;;;;;15.71;70.80;98552.06;5031407;28;20116;-72
2021/08/08 01:00:12;;;;;;;9.35;2.72;;;;;;;15.73;71.11;98555.44;5032080;28;20037;-72
2021/08/08 01:02:46;;;;;;;7.93;2.30;;;;;;;15.73;70.85;98556.25;5008693;28;20678;-71
2021/08/08 01:05:16;;;;;;;8.07;2.35;;;;;;;15.73;70.85;98552.78;5032614;28;20490;-70
2021/08/08 01:07:56;;;;;;;9.07;2.70;;;;;;;15.73;70.43;98550.13;5030285;28;20087;-73
2021/08/08 01:10:23;;;;;;;6.93;2.20;;;;;;;15.75;70.65;98566.72;5031594;28;20088;-70
2021/08/08 01:12:50;;;;;;;5.10;2.13;;;;;;;15.73;70.65;98571.38;5031033;28;20509;-70
2021/08/08 01:15:16;;;;;;;4.70;2.28;;;;;;;15.75;70.58;98569.38;5031036;28;20045;-70
2021/08/08 01:17:43;;;;;;;6.47;2.40;;;;;;;15.75;70.39;98572.91;5031119;28;20041;-71
2021/08/08 01:20:12;;;;;;;8.50;3.00;;;;;;;15.72;70.43;98567.84;5031819;28;20033;-71
2021/08/08 01:22:48;;;;;;;8.32;2.70;;;;;;;15.68;70.62;98575.25;5031784;28;20064;-71
2021/08/08 01:25:13;;;;;;;7.65;3.83;;;;;;;15.67;70.99;98578.03;5031725;28;20041;-71
2021/08/08 01:27:40;;;;;;;9.07;2.72;;;;;;;15.64;70.63;98573.81;5030759;28;20030;-71
2021/08/08 01:30:07;;;;;;;7.70;3.13;;;;;;;15.65;70.45;98574.66;5031493;28;20121;-71
2021/08/08 01:32:33;;;;;;;7.70;3.38;;;;;;;15.62;70.63;98581.09;5031688;28;20029;-72
2021/08/08 01:35:00;;;;;;;9.93;2.55;;;;;;;15.59;70.37;98584.03;5030515;28;20044;-71
2021/08/08 01:37:28;;;;;;;8.32;2.75;;;;;;;15.60;70.62;98584.84;5030534;28;20108;-71
2021/08/08 01:40:11;;;;;;;4.82;2.83;;;;;;;15.59;70.51;98581.38;5031183;28;20033;-71
2021/08/08 01:42:41;;;;;;;8.73;3.33;;;;;;;15.56;70.79;98586.97;5031451;28;20041;-71
2021/08/08 01:45:09;;;;;;;7.47;3.08;;;;;;;15.53;70.47;98578.41;5030749;28;20065;-71
2021/08/08 01:47:38;;;;;;;7.88;2.85;;;;;;;15.54;70.83;98583.59;5027059;28;20034;-72
2021/08/08 01:50:04;;;;;;;10.75;2.90;;;;;;;15.52;70.72;98590.84;5030799;28;20030;-72
2021/08/08 01:52:30;;;;;;;9.20;2.85;;;;;;;15.49;70.89;98595.63;5030377;28;20017;-71
2021/08/08 01:54:56;;;;;;;6.50;2.67;;;;;;;15.52;70.75;98600.66;5030057;28;20042;-72
2021/08/08 01:57:21;;;;;;;7.85;2.72;;;;;;;15.52;70.90;98596.16;5030761;28;20029;-71
2021/08/08 01:59:47;;;;;;;10.63;2.40;;;;;;;15.50;70.97;98598.13;5031617;28;20029;-71
2021/08/08 02:02:15;;;;;;;5.55;2.42;;;;;;;15.46;70.53;98596.72;5031831;28;20114;-70
2021/08/08 02:04:42;;;;;;;7.53;3.00;;;;;;;15.43;70.16;98597.84;5030713;28;20110;-70
2021/08/08 02:07:14;;;;;;;9.10;2.75;;;;;;;15.42;70.11;98600.63;5029643;28;20555;-70
2021/08/08 02:09:41;;;;;;;6.47;3.17;;;;;;;15.44;70.28;98611.97;5031173;28;20037;-71
2021/08/08 02:12:06;;;;;;;8.57;3.28;;;;;;;15.44;70.55;98612.78;5030892;28;20040;-70
2021/08/08 02:14:32;;;;;;;6.38;2.70;;;;;;;15.41;70.47;98615.72;5030995;28;20116;-71
2021/08/08 02:16:58;;;;;;;11.80;3.47;;;;;;;15.42;70.64;98616.56;5030169;28;20038;-71
2021/08/08 02:19:23;;;;;;;10.35;3.90;;;;;;;15.40;70.50;98619.34;5030384;28;20037;-70
2021/08/08 02:21:49;;;;;;;8.45;3.03;;;;;;;15.41;70.28;98634.31;5029780;28;20049;-70
2021/08/08 02:24:14;;;;;;;5.75;2.90;;;;;;;15.42;70.22;98624.53;5029641;28;20148;-71
2021/08/08 02:26:39;;;;;;;7.03;3.20;;;;;;;15.43;70.00;98621.75;5028862;28;20060;-69
2021/08/08 02:29:05;;;;;;;7.85;3.55;;;;;;;15.42;69.82;98616.56;5028076;28;20111;-70
2021/08/08 02:31:37;;;;;;;9.73;2.97;;;;;;;15.39;69.68;98617.66;5029518;28;20033;-70
2021/08/08 02:34:04;;;;;;;7.25;3.10;;;;;;;15.36;69.80;98622.41;5030780;28;20053;-70
2021/08/08 02:36:29;;;;;;;14.02;4.13;;;;;;;15.35;69.72;98620.72;5029745;28;20036;-71
2021/08/08 02:38:54;;;;;;;16.05;5.68;;;;;;;15.31;69.76;98619.31;5030193;28;20116;-70
2021/08/08 02:41:20;;;;;;;9.07;3.15;;;;;;;15.26;69.74;98627.69;5030841;28;20056;-72
2021/08/08 02:43:45;;;;;;;8.50;3.30;;;;;;;15.27;69.93;98625.88;5029736;28;20401;-71
2021/08/08 02:46:10;;;;;;;11.13;3.30;;;;;;;15.27;69.94;98626.72;5028737;28;20446;-71
2021/08/08 02:48:36;;;;;;;9.48;3.88;;;;;;;15.27;69.85;98628.53;5029354;28;20044;-70
2021/08/08 02:51:02;;;;;;;8.98;3.35;;;;;;;15.20;69.85;98629.03;5029269;28;20037;-70
2021/08/08 02:53:27;;;;;;;8.43;4.15;;;;;;;15.15;69.91;98628.59;5027905;28;20025;-70
2021/08/08 02:55:53;;;;;;;10.85;3.85;;;;;;;15.15;70.18;98633.09;5029460;28;20033;-70
2021/08/08 02:58:18;;;;;;;8.82;3.53;;;;;;;15.09;69.88;98631.81;5028965;28;20113;-70
2021/08/08 03:00:44;;;;;;;11.93;3.20;;;;;;;15.06;70.33;98629.41;5028442;28;20034;-71
2021/08/08 03:03:09;;;;;;;11.82;3.72;;;;;;;15.02;70.37;98636.81;5029815;28;20042;-70
2021/08/08 03:05:34;;;;;;;9.10;2.97;;;;;;;15.02;70.38;98634.16;5029516;28;20030;-70
2021/08/08 03:08:00;;;;;;;11.70;3.55;;;;;;;14.99;70.31;98638.88;5029255;28;20545;-72
2021/08/08 03:10:25;;;;;;;17.40;4.40;;;;;;;14.97;70.60;98644.31;5030272;28;20116;-71
2021/08/08 03:12:50;;;;;;;8.43;3.42;;;;;;;14.96;70.36;98649.75;5028083;28;20394;-70
2021/08/08 03:15:16;;;;;;;12.88;4.57;;;;;;;14.93;70.85;98642.88;5028212;28;20038;-70
2021/08/08 03:17:42;;;;;;;14.95;3.72;;;;;;;14.95;70.80;98651.56;5027936;28;20029;-70
2021/08/08 03:20:08;;;;;;;11.25;3.30;;;;;;;14.99;70.85;98654.81;5029311;28;20037;-71
2021/08/08 03:22:34;;;;;;;8.52;3.47;;;;;;;15.00;70.50;98652.00;5027831;28;20029;-70
2021/08/08 03:24:59;;;;;;;14.27;4.43;;;;;;;15.02;70.79;98650.06;5027413;28;20045;-71
2021/08/08 03:27:25;;;;;;;8.98;3.85;;;;;;;15.02;70.89;98652.72;5010490;28;20036;-71
2021/08/08 03:29:50;;;;;;;13.07;4.35;;;;;;;15.06;71.34;98657.75;5029395;28;20041;-71
2021/08/08 03:32:15;;;;;;;11.00;3.65;;;;;;;15.08;71.28;98643.38;5029117;28;20091;-69
2021/08/08 03:34:41;;;;;;;14.30;4.28;;;;;;;15.09;71.11;98653.03;5028138;28;20033;-70
2021/08/08 03:37:06;;;;;;;12.27;4.25;;;;;;;15.09;71.13;98658.34;5028529;28;20096;-70
2021/08/08 03:39:31;;;;;;;19.13;4.72;;;;;;;15.07;70.98;98665.59;5029334;28;20033;-70
2021/08/08 03:41:57;;;;;;;8.98;3.67;;;;;;;15.04;70.95;98671.19;5028102;28;20044;-70
2021/08/08 03:44:22;;;;;;;7.97;3.17;;;;;;;15.05;71.14;98666.72;5027323;28;20128;-69
2021/08/08 03:46:48;;;;;;;14.07;3.70;;;;;;;15.06;71.18;98673.69;5025680;28;20127;-70
2021/08/08 03:49:14;;;;;;;8.75;3.70;;;;;;;15.07;71.29;98681.53;5025621;28;20466;-71
2021/08/08 03:51:40;;;;;;;9.43;3.60;;;;;;;15.09;71.18;98678.72;5027427;28;20037;-72
2021/08/08 03:54:06;;;;;;;10.70;3.40;;;;;;;15.10;71.33;98673.28;5030332;28;20041;-70
2021/08/08 03:56:34;;;;;;;12.65;3.53;;;;;;;15.08;71.24;98691.16;5026654;28;20057;-70
2021/08/08 03:59:00;;;;;;;9.35;3.35;;;;;;;15.11;71.36;98682.97;5029035;28;20398;-71
2021/08/08 04:01:25;;;;;;;8.80;4.15;;;;;;;15.16;71.35;98679.88;5029590;28;20022;-71
2021/08/08 04:03:50;;;;;;;8.13;3.78;;;;;;;15.18;71.36;98672.63;5011062;28;20060;-72
2021/08/08 04:06:16;;;;;;;8.05;3.55;;;;;;;15.21;71.11;98677.66;5029091;28;20033;-71
2021/08/08 04:08:41;;;;;;;11.02;4.20;;;;;;;15.19;71.11;98687.59;5028557;28;20374;-72
2021/08/08 04:11:13;;;;;;;17.40;3.47;;;;;;;15.17;71.10;98677.09;5029017;28;20107;-72
2021/08/08 04:13:39;;;;;;;11.45;3.83;;;;;;;15.18;71.04;98677.94;5029061;28;20112;-72
2021/08/08 04:16:05;;;;;;;10.23;3.42;;;;;;;15.18;70.69;98688.56;5029793;28;20212;-72
2021/08/08 04:18:30;;;;;;;9.55;3.85;;;;;;;15.15;70.82;98673.75;5028946;28;20084;-72
2021/08/08 04:20:55;;;;;;;10.50;3.20;;;;;;;15.11;71.01;98688.28;5029110;28;20030;-69
2021/08/08 04:23:21;;;;;;;8.38;3.08;;;;;;;15.08;70.84;98696.47;5028460;28;20132;-73
2021/08/08 04:25:46;;;;;;;10.52;3.67;;;;;;;15.08;70.57;98692.97;5027178;28;20061;-70
2021/08/08 04:28:11;;;;;;;5.72;3.08;;;;;;;15.07;70.79;98702.78;5028111;28;20120;-69
2021/08/08 04:30:37;;;;;;;14.00;3.00;;;;;;;15.06;70.76;98711.69;5032248;28;20029;-71
2021/08/08 04:33:04;;;;;;;8.55;3.47;;;;;;;15.09;70.90;98708.78;5032759;28;20398;-71
2021/08/08 04:35:30;;;;;;;7.00;3.20;;;;;;;15.11;70.97;98721.91;5033185;28;20454;-70
2021/08/08 04:37:57;;;;;;;8.65;2.92;;;;;;;15.12;70.83;98720.97;5031317;28;20489;-71
2021/08/08 04:40:23;;;;;;;17.33;5.53;;;;;;;15.12;70.68;98713.84;5031208;28;20037;-70
2021/08/08 04:42:48;;;;;;;8.30;3.97;;;;;;;15.12;70.70;98719.13;5030838;28;20045;-71
2021/08/08 04:45:13;;;;;;;12.90;3.30;;;;;;;15.16;70.77;98725.03;5030671;28;20069;-71
2021/08/08 04:47:39;;;;;;;8.50;3.38;;;;;;;15.20;70.58;98727.28;5031616;28;20086;-70
2021/08/08 04:50:07;;;;;;;7.30;3.65;;;;;;;15.18;70.29;98729.22;5032457;28;20127;-71
2021/08/08 04:52:34;;;;;;;6.18;2.97;;;;;;;15.17;70.18;98735.50;5032063;28;20034;-70
2021/08/08 04:55:00;;;;;;;8.45;3.17;;;;;;;15.15;70.15;98726.84;5028039;28;20053;-71
2021/08/08 04:57:25;;;;;;;10.98;3.58;;;;;;;15.14;70.23;98743.75;5029719;28;20029;-70
2021/08/08 04:59:50;;;;;;;9.23;3.00;;;;;;;15.15;70.23;98749.91;5030375;28;20067;-72
2021/08/08 05:02:20;;;;;;;6.97;3.70;;;;;;;15.11;70.24;98754.63;5030289;28;20436;-71
2021/08/08 05:04:45;;;;;;;6.15;2.97;;;;;;;15.12;70.39;98755.47;5030171;28;20037;-72
2021/08/08 05:07:10;;;;;;;7.03;3.10;;;;;;;15.13;70.35;98757.13;5028341;28;20060;-72
2021/08/08 05:09:35;;;;;;;7.70;3.17;;;;;;;15.11;70.30;98754.63;5031808;28;20440;-71
2021/08/08 05:12:01;;;;;;;11.82;4.70;;;;;;;15.12;70.49;98753.66;5032694;28;20485;-71
2021/08/08 05:14:26;;;;;;;8.68;3.53;;;;;;;15.09;70.32;98761.00;5026669;28;20096;-72
2021/08/08 05:16:53;;;;;;;8.82;3.67;;;;;;;15.10;70.35;98760.06;5027356;28;20060;-71
2021/08/08 05:19:18;;;;;;;8.77;3.15;;;;;;;15.13;70.46;98765.09;5028877;28;20087;-71
2021/08/08 05:21:44;;;;;;;9.00;3.10;;;;;;;15.09;70.12;98763.66;5015373;28;20045;-72
2021/08/08 05:24:09;;;;;;;9.13;3.13;;;;;;;15.13;70.17;98754.50;5011121;28;20078;-71
2021/08/08 05:26:34;;;;;;;10.50;3.10;;;;;;;15.07;70.29;98763.81;5011398;28;20045;-70
2021/08/08 05:29:00;;;;;;;6.38;3.28;;;;;;;15.07;70.13;98769.13;5010567;28;20065;-71
2021/08/08 05:31:25;;;;;;;10.55;3.60;;;;;;;15.10;70.23;98763.56;5010653;28;20033;-71
2021/08/08 05:33:50;;;;;;;13.23;4.68;;;;;;;15.08;69.87;98769.97;5010112;28;20030;-72
2021/08/08 05:36:16;;;;;;;6.88;3.42;;;;;;;15.08;69.63;98769.97;5009209;28;20045;-70
2021/08/08 05:38:41;;;;;;;8.32;2.92;;;;;;;15.08;69.63;98770.81;5011033;28;20033;-71
2021/08/08 05:41:06;;;;;;;12.13;3.28;;;;;;;15.14;69.28;98772.94;5010514;28;20049;-72
2021/08/08 05:43:32;;;;;;;9.63;3.10;;;;;;;15.23;68.78;98773.97;5011628;28;20494;-71
2021/08/08 05:45:57;;;;;;;10.70;3.13;;;;;;;15.29;68.53;98780.59;5010805;28;20060;-71
2021/08/08 05:48:23;;;;;;;14.52;4.75;;;;;;;15.32;68.26;98783.81;5010170;28;20033;-72
2021/08/08 05:50:48;;;;;;;7.45;2.92;;;;;;;15.34;67.87;98789.00;5011136;28;20575;-71
2021/08/08 05:53:13;;;;;;;6.35;3.40;;;;;;;15.32;67.93;98793.59;5011325;28;20032;-71
2021/08/08 05:55:46;;;;;;;10.48;3.85;;;;;;;15.30;68.15;98798.19;5011495;28;20601;-71
2021/08/08 05:58:11;;;;;;;14.38;4.68;;;;;;;15.33;68.46;98804.09;5010789;28;20548;-70
2021/08/08 06:00:36;;;;;;;10.90;3.78;;;;;;;15.28;68.18;98802.78;5011531;28;20022;-70
2021/08/08 06:03:06;;;;;;;11.70;4.05;;;;;;;15.30;68.14;98793.72;5011850;28;20537;-71
2021/08/08 06:05:32;;;;;;;11.55;4.28;;;;;;;15.35;68.07;98807.47;5011660;28;20041;-72
2021/08/08 06:07:57;;;;;;;8.52;3.35;;;;;;;15.43;68.02;98798.84;5009949;28;20030;-71
2021/08/08 06:10:23;;;;;;;10.73;3.95;;;;;;;15.49;67.49;98802.81;5011166;28;20052;-71
2021/08/08 06:12:48;;;;;;;12.50;4.32;;;;;;;15.45;67.30;98815.50;5010852;28;20516;-71
2021/08/08 06:15:13;;;;;;;15.73;5.05;;;;;;;15.38;67.25;98806.34;5010691;28;20033;-69
2021/08/08 06:17:39;;;;;;;12.10;4.30;;;;;;;15.42;67.44;98829.88;5010143;28;20485;-70
2021/08/08 06:20:04;;;;;;;18.25;4.47;;;;;;;15.40;66.69;98829.16;5011295;28;20112;-70
2021/08/08 06:22:30;;;;;;;14.95;4.38;;;;;;;15.51;67.05;98828.25;5010630;28;20030;-70
2021/08/08 06:24:55;;;;;;;9.27;3.80;;;;;;;15.58;66.62;98832.09;5010612;28;20060;-71
2021/08/08 06:27:20;;;;;;;11.63;3.78;;;;;;;15.58;65.78;98837.41;5009430;28;20038;-71
2021/08/08 06:29:46;;;;;;;14.30;3.80;;;;;;;15.56;65.74;98852.63;5013319;28;20343;-72
2021/08/08 06:32:11;;;;;;;11.32;3.58;;;;;;;15.54;65.74;98849.25;5028965;28;20034;-69
2021/08/08 06:34:37;;;;;;;17.13;3.83;;;;;;;15.56;65.54;98854.44;5029685;28;20033;-72
2021/08/08 06:37:02;;;;;;;11.57;4.18;;;;;;;15.52;65.01;98856.50;5030108;28;20048;-70
2021/08/08 06:39:28;;;;;;;9.30;4.43;;;;;;;15.45;64.26;98847.34;5030384;28;20033;-72
2021/08/08 06:41:53;;;;;;;16.30;4.57;;;;;;;15.52;64.64;98855.66;5030197;28;20042;-72
2021/08/08 06:44:18;;;;;;;12.63;4.53;;;;;;;15.59;64.66;98862.16;5030174;28;20649;-72
2021/08/08 06:46:44;;;;;;;12.52;5.15;;;;;;;15.63;64.38;98864.41;5029221;28;20033;-71
2021/08/08 06:49:09;;;;;;;16.35;4.60;;;;;;;15.61;63.86;98869.00;5030285;28;20029;-71
2021/08/08 06:51:34;;;;;;;8.88;3.30;;;;;;;15.61;63.59;98857.56;5028508;28;20164;-71
2021/08/08 06:54:00;;;;;;;16.55;5.00;;;;;;;15.62;63.59;98869.84;5028491;28;20485;-72
2021/08/08 06:56:25;;;;;;;10.95;3.97;;;;;;;15.62;63.64;98873.34;5028510;28;20037;-72
2021/08/08 06:59:18;;;;;;;13.77;4.57;;;;;;;15.64;63.51;98865.25;5026072;28;20036;-72
2021/08/08 07:01:44;;;;;;;6.90;3.58;;;;;;;15.73;63.44;98869.81;5028962;28;20034;-71
2021/08/08 07:04:09;;;;;;;17.73;4.38;;;;;;;15.80;62.93;98872.78;5028637;28;20094;-71
2021/08/08 07:06:35;;;;;;;11.57;4.40;;;;;;;15.81;62.66;98870.00;5029037;28;20116;-71
2021/08/08 07:09:01;;;;;;;8.32;3.50;;;;;;;15.85;62.29;98865.25;5029710;28;20034;-71
2021/08/08 07:11:27;;;;;;;9.13;3.78;;;;;;;15.89;62.18;98879.97;5029627;28;20037;-71
2021/08/08 07:13:52;;;;;;;11.40;4.32;;;;;;;15.96;61.48;98870.50;5029644;28;20559;-71
2021/08/08 07:16:18;;;;;;;11.43;3.90;;;;;;;16.00;61.64;98884.38;5028887;28;20154;-71
2021/08/08 07:18:43;;;;;;;13.85;4.57;;;;;;;16.01;60.95;98878.91;5032343;28;20563;-71
2021/08/08 07:21:10;;;;;;;13.15;3.80;;;;;;;16.12;60.83;98875.34;5043205;28;20053;-70
2021/08/08 07:23:35;;;;;;;10.65;3.83;;;;;;;16.23;60.27;98882.38;5029359;28;20043;-71
2021/08/08 07:26:01;;;;;;;16.05;4.30;;;;;;;16.29;60.14;98874.72;5028927;28;20029;-71
2021/08/08 07:28:27;;;;;;;10.88;3.55;;;;;;;16.42;60.15;98871.81;5028492;28;20056;-71
2021/08/08 07:30:52;;;;;;;12.35;4.22;;;;;;;16.65;59.55;98876.91;5028406;28;20056;-70
2021/08/08 07:33:18;;;;;;;11.30;5.68;;;;;;;16.79;59.83;98889.03;5020512;28;20034;-71
2021/08/08 07:35:43;;;;;;;12.80;4.38;;;;;;;16.81;59.20;98881.72;5020306;28;20057;-71
2021/08/08 07:38:09;;;;;;;9.13;4.00;;;;;;;16.83;59.65;98877.94;5028571;28;20037;-71
2021/08/08 07:40:35;;;;;;;8.02;3.42;;;;;;;16.84;59.85;98871.66;5028648;28;20033;-71
2021/08/08 07:43:01;;;;;;;11.13;4.13;;;;;;;16.95;59.84;98884.84;5029278;28;20471;-71
2021/08/08 07:45:26;;;;;;;18.23;3.85;;;;;;;16.98;59.82;98881.06;5029223;28;20063;-71
2021/08/08 07:47:52;;;;;;;11.10;5.60;;;;;;;17.01;59.70;98888.78;5028108;28;20048;-72
2021/08/08 07:50:17;;;;;;;13.10;4.05;;;;;;;16.95;59.05;98892.81;5029419;28;20037;-71
2021/08/08 07:52:42;;;;;;;12.73;4.68;;;;;;;16.95;58.90;98889.31;5028022;28;20108;-71
2021/08/08 07:55:09;;;;;;;11.32;3.83;;;;;;;17.02;58.91;98897.59;5029379;28;20392;-71
2021/08/08 07:57:35;;;;;;;10.77;3.00;;;;;;;17.00;58.87;98896.91;5025919;28;20025;-71
2021/08/08 08:00:01;;;;;;;12.70;3.90;;;;;;;17.23;58.63;98901.00;5026461;28;20037;-71
2021/08/08 08:02:26;;;;;;;8.95;3.67;;;;;;;17.62;57.49;98900.97;5027309;28;20030;-71
2021/08/08 08:04:51;;;;;;;9.07;3.72;;;;;;;17.89;56.33;98915.41;5028360;28;20433;-71
2021/08/08 08:07:17;;;;;;;15.60;5.20;;;;;;;17.92;56.37;98920.47;5027524;28;20482;-71
2021/08/08 08:09:42;;;;;;;8.57;3.75;;;;;;;17.80;56.21;98920.63;5024454;28;20040;-72
2021/08/08 08:12:08;;;;;;;13.88;4.28;;;;;;;17.69;56.58;98919.91;5026097;28;20095;-72
2021/08/08 08:14:34;;;;;;;10.70;4.60;;;;;;;17.51;56.57;98923.28;5026559;28;20127;-71
2021/08/08 08:16:59;;;;;;;8.63;3.35;;;;;;;17.36;56.79;98930.84;5025039;28;20041;-72
2021/08/08 08:19:24;;;;;;;13.93;3.67;;;;;;;17.33;57.33;98930.31;5027286;28;20030;-72
2021/08/08 08:21:50;;;;;;;16.45;4.40;;;;;;;17.35;57.63;98945.16;5029642;28;20045;-71
2021/08/08 08:24:15;;;;;;;20.27;4.85;;;;;;;17.32;57.17;98940.09;5027897;28;20030;-72
2021/08/08 08:26:41;;;;;;;7.72;3.72;;;;;;;17.38;57.07;98939.56;5026987;28;20030;-71
2021/08/08 08:29:06;;;;;;;7.25;2.88;;;;;;;17.35;57.18;98945.16;5028957;28;20033;-71
2021/08/08 08:31:33;;;;;;;11.23;3.10;;;;;;;17.23;56.75;98946.28;5028417;28;20033;-71
2021/08/08 08:33:58;;;;;;;14.27;4.65;;;;;;;17.46;57.09;98951.34;5028667;28;20493;-72
2021/08/08 08:36:24;;;;;;;10.63;2.83;;;;;;;17.51;56.41;98946.44;5026711;28;20033;-72
2021/08/08 08:38:49;;;;;;;11.57;4.60;;;;;;;17.64;56.17;98949.63;5028475;28;20040;-72
2021/08/08 08:41:15;;;;;;;8.82;3.33;;;;;;;17.74;56.26;98938.97;5027440;28;20034;-71
2021/08/08 08:43:45;;;;;;;14.00;3.83;;;;;;;17.78;56.37;98946.53;5028995;28;20116;-72
2021/08/08 08:46:11;;;;;;;10.48;3.08;;;;;;;17.93;55.87;98940.81;5028646;28;20044;-72
2021/08/08 08:48:38;;;;;;;9.88;4.45;;;;;;;17.95;55.25;98941.50;5025208;28;20113;-72
2021/08/08 08:51:05;;;;;;;26.50;4.18;;;;;;;18.09;54.87;98945.53;5027849;28;20056;-72
2021/08/08 08:53:31;;;;;;;9.60;3.85;;;;;;;18.33;54.40;98945.06;5028497;28;20131;-71
2021/08/08 08:56:01;;;;;;;12.93;3.72;;;;;;;18.46;54.59;98950.94;5028018;28;20436;-71
2021/08/08 08:58:26;;;;;;;11.27;3.40;;;;;;;18.42;54.23;98961.03;5027603;28;20460;-71
2021/08/08 09:00:52;;;;;;;8.73;3.05;;;;;;;18.23;54.27;98961.94;5026846;28;20037;-71
2021/08/08 09:03:18;;;;;;;8.48;3.45;;;;;;;18.17;54.36;98970.53;5027777;28;20038;-71
2021/08/08 09:05:43;;;;;;;13.02;3.03;;;;;;;18.14;54.30;98969.94;5028497;28;20489;-72
2021/08/08 09:08:09;;;;;;;8.50;3.17;;;;;;;18.18;54.80;98976.69;5027024;28;20489;-72
2021/08/08 09:10:36;;;;;;;8.85;3.50;;;;;;;18.13;54.42;98986.94;5028033;28;20090;-72
2021/08/08 09:13:04;;;;;;;7.18;2.78;;;;;;;17.94;54.32;98977.16;5028035;28;20032;-72
2021/08/08 09:15:38;;;;;;;9.15;3.63;;;;;;;18.00;54.63;98974.75;5029530;28;20485;-72
2021/08/08 09:18:17;;;;;;;8.40;2.88;;;;;;;18.16;54.25;98973.31;5030554;28;20116;-71
2021/08/08 09:20:45;;;;;;;9.75;2.97;;;;;;;18.26;54.82;98973.31;5032127;28;20037;-72
2021/08/08 09:23:10;;;;;;;6.97;3.42;;;;;;;18.28;54.18;98972.16;5031867;28;20037;-71
2021/08/08 09:25:37;;;;;;;10.30;2.97;;;;;;;18.26;53.90;98965.28;5031881;28;20044;-72
2021/08/08 09:28:11;;;;;;;10.18;3.08;;;;;;;18.31;53.74;98971.03;5031198;28;20572;-71
2021/08/08 09:30:38;;;;;;;8.55;2.60;;;;;;;18.31;54.15;98979.91;5031586;28;20515;-72
2021/08/08 09:33:06;;;;;;;5.22;2.40;;;;;;;18.57;53.33;98979.25;5031283;28;20444;-72
2021/08/08 09:35:37;;;;;;;7.15;2.70;;;;;;;18.69;53.23;98977.25;5031679;28;20044;-71
2021/08/08 09:38:07;;;;;;;6.72;2.97;;;;;;;18.97;52.38;98986.94;5030836;28;20121;-72
2021/08/08 09:40:33;;;;;;;7.00;2.38;;;;;;;19.19;52.17;98984.88;5030874;28;20041;-72
2021/08/08 09:42:58;;;;;;;6.28;2.60;;;;;;;19.02;52.59;98986.50;5031808;28;20041;-72
2021/08/08 09:45:43;;;;;;;6.70;2.88;;;;;;;18.91;53.31;98995.56;5031148;28;20037;-72
2021/08/08 09:48:11;;;;;;;8.80;2.70;;;;;;;18.67;53.04;99004.91;5029015;28;20048;-71
2021/08/08 09:50:38;;;;;;;6.65;3.10;;;;;;;18.54;53.85;98995.56;5031344;28;20654;-71
2021/08/08 09:53:08;;;;;;;8.32;3.15;;;;;;;18.55;53.75;99002.56;5029738;28;20037;-71
2021/08/08 09:55:38;;;;;;;9.55;3.15;;;;;;;18.81;53.59;99003.63;5030811;28;20033;-72
2021/08/08 09:58:22;;;;;;;11.52;2.28;;;;;;;18.97;52.95;99011.00;5030381;28;20049;-71
2021/08/08 10:00:49;;;;;;;10.82;3.55;;;;;;;19.21;52.75;98999.75;5031768;28;20551;-71
2021/08/08 10:03:16;;;;;;;8.82;3.10;;;;;;;19.51;52.16;99001.25;5031539;28;20042;-71
2021/08/08 10:05:43;;;;;;;11.60;3.78;;;;;;;19.69;51.51;99012.00;5030499;28;20040;-72
2021/08/08 10:08:16;;;;;;;6.72;2.80;;;;;;;19.76;51.07;99003.34;5029010;28;20040;-72
2021/08/08 10:10:47;;;;;;;12.52;3.08;;;;;;;19.93;50.29;99008.69;5030653;28;20030;-72
2021/08/08 10:13:28;;;;;;;7.28;2.92;;;;;;;20.96;48.64;98994.63;5031329;28;20047;-71
2021/08/08 10:15:56;;;;;;;7.30;3.03;;;;;;;21.12;46.63;98991.19;5029765;28;20537;-71
2021/08/08 10:18:24;;;;;;;7.50;2.60;;;;;;;21.10;46.36;99007.41;5026570;28;20470;-71
2021/08/08 10:20:50;;;;;;;6.65;3.13;;;;;;;20.66;47.34;99004.03;5025817;28;20197;-71
2021/08/08 10:23:17;;;;;;;15.82;3.92;;;;;;;20.59;47.68;99004.66;5027843;28;20041;-71
2021/08/08 10:25:45;;;;;;;6.95;2.70;;;;;;;20.75;47.47;99003.09;5026481;28;20056;-71
2021/08/08 10:28:11;;;;;;;9.00;2.70;;;;;;;20.76;46.43;98997.56;5026220;28;20034;-71
2021/08/08 10:30:38;;;;;;;5.57;2.50;;;;;;;21.06;46.07;98999.84;5027195;28;20033;-72
2021/08/08 10:33:05;;;;;;;5.88;2.40;;;;;;;20.93;46.00;99003.00;5030623;28;20029;-72
2021/08/08 10:35:42;;;;;;;6.78;2.80;;;;;;;20.61;46.85;98999.16;5029981;28;20041;-72
2021/08/08 10:38:08;;;;;;;7.00;1.88;;;;;;;20.40;47.79;98998.66;5029345;28;20113;-72
2021/08/08 10:40:36;;;;;;;5.18;2.30;;;;;;;20.48;48.18;98998.72;5029906;28;20033;-72
2021/08/08 10:43:02;;;;;;;5.68;2.42;;;;;;;20.52;47.10;98990.19;5030408;28;20152;-72
2021/08/08 10:45:29;;;;;;;5.55;2.63;;;;;;;20.73;46.90;98994.38;5030229;28;20569;-73
2021/08/08 10:47:56;;;;;;;6.38;2.30;;;;;;;20.76;46.08;98994.03;5028001;28;20040;-72
2021/08/08 10:50:22;;;;;;;6.40;2.90;;;;;;;20.39;47.67;98992.47;5028587;28;20179;-72
2021/08/08 10:52:48;;;;;;;8.63;2.67;;;;;;;20.25;48.21;99007.25;5030416;28;20490;-73
2021/08/08 10:55:26;;;;;;;9.25;3.22;;;;;;;20.72;46.85;99004.25;5028704;28;20044;-72
2021/08/08 10:57:52;;;;;;;7.03;2.60;;;;;;;21.71;44.18;99001.88;5029944;28;20516;-72
2021/08/08 11:00:18;;;;;;;5.20;2.47;;;;;;;22.16;43.27;99000.56;5030322;28;20037;-72
2021/08/08 11:02:44;;;;;;;6.70;2.58;;;;;;;22.16;43.76;98998.69;5029948;28;20033;-72
2021/08/08 11:05:15;;;;;;;4.68;2.47;;;;;;;21.83;43.85;99001.41;5029990;28;20033;-72
2021/08/08 11:07:41;;;;;;;8.48;2.40;;;;;;;21.25;44.85;99012.16;5029642;28;20116;-72
2021/08/08 11:10:09;;;;;;;7.63;2.80;;;;;;;21.06;45.47;99000.69;5030260;28;20084;-72
2021/08/08 11:12:39;;;;;;;3.88;2.60;;;;;;;20.89;45.99;99001.63;5029950;28;20037;-71
2021/08/08 11:15:07;;;;;;;3.30;1.95;;;;;;;20.84;46.27;99003.94;5029250;28;20489;-72
2021/08/08 11:17:32;;;;;;;4.05;2.25;;;;;;;21.44;44.76;99002.00;5029181;28;20370;-72
2021/08/08 11:19:58;;;;;;;8.55;2.60;;;;;;;21.59;44.93;98991.47;5029477;28;20045;-72
2021/08/08 11:22:23;;;;;;;8.82;3.08;;;;;;;21.53;43.96;98986.75;5030067;28;20038;-71
2021/08/08 11:25:12;;;;;;;7.85;2.90;;;;;;;21.51;44.38;98999.53;5030333;28;20042;-71
2021/08/08 11:27:42;;;;;;;3.85;1.80;;;;;;;21.52;43.89;98998.50;5029202;28;20033;-73